createdAt,value
2018-12-21T00:01:50.220Z,87.65
2018-12-21T00:04:18.878Z,88.11
2018-12-21T00:06:47.521Z,88.25
2018-12-21T00:09:16.299Z,88.76
2018-12-21T00:11:44.971Z,88.46
2018-12-21T00:14:13.543Z,87.99
2018-12-21T00:16:42.236Z,88.25
2018-12-21T00:19:10.945Z,88.15
2018-12-21T00:21:39.653Z,87.76
2018-12-21T00:24:08.257Z,87.78
2018-12-21T00:26:36.921Z,87.66
2018-12-21T00:29:05.570Z,87.47
2018-12-21T00:31:39.347Z,87.78
2018-12-21T00:34:13.112Z,87.57
2018-12-21T00:36:46.882Z,87.79
2018-12-21T00:39:20.824Z,87.84
2018-12-21T00:41:48.554Z,87.37
2018-12-21T00:44:29.227Z,87.23
2018-12-21T00:47:01.821Z,87.23
2018-12-21T00:49:30.497Z,87.27
2018-12-21T00:51:59.073Z,87.70
2018-12-21T00:54:27.700Z,87.24
2018-12-21T00:56:58.316Z,87.35
2018-12-21T00:59:26.984Z,87.84
2018-12-21T01:01:55.710Z,89.26
2018-12-21T01:04:24.333Z,89.58
2018-12-21T01:06:53.008Z,89.10
2018-12-21T01:09:21.878Z,88.78
2018-12-21T01:11:50.481Z,88.20
2018-12-21T01:14:19.262Z,88.44
2018-12-21T01:16:47.938Z,88.01
2018-12-21T01:19:16.581Z,88.29
2018-12-21T01:21:45.223Z,87.86
2018-12-21T01:24:14.617Z,87.65
2018-12-21T01:26:43.217Z,87.58
2018-12-21T01:29:11.867Z,87.04
2018-12-21T01:31:40.524Z,87.25
2018-12-21T01:34:09.118Z,87.01
2018-12-21T01:36:37.687Z,87.50
2018-12-21T01:39:07.150Z,87.71
2018-12-21T01:41:35.822Z,87.19
2018-12-21T01:44:04.747Z,87.77
2018-12-21T01:46:33.358Z,88.47
2018-12-21T01:49:01.948Z,88.12
2018-12-21T01:51:30.558Z,87.99
2018-12-21T01:53:59.178Z,87.88
2018-12-21T01:56:27.778Z,87.50
2018-12-21T01:58:56.432Z,87.74
2018-12-21T02:01:25.009Z,87.66
2018-12-21T02:03:53.679Z,87.20
2018-12-21T02:06:22.365Z,87.70
2018-12-21T02:08:50.954Z,88.24
2018-12-21T02:11:19.538Z,87.69
2018-12-21T02:13:48.152Z,87.93
2018-12-21T02:16:16.763Z,88.30
2018-12-21T02:18:45.375Z,88.05
2018-12-21T02:21:13.931Z,88.67
2018-12-21T02:23:42.535Z,88.54
2018-12-21T02:26:11.129Z,88.14
2018-12-21T02:28:39.761Z,88.27
2018-12-21T02:31:08.373Z,88.14
2018-12-21T02:33:36.980Z,87.95
2018-12-21T02:36:05.618Z,88.20
2018-12-21T02:38:34.200Z,87.83
2018-12-21T02:41:02.788Z,88.05
2018-12-21T02:43:31.384Z,87.32
2018-12-21T02:50:36.351Z,88.55
2018-12-21T02:53:04.982Z,88.67
2018-12-21T02:55:33.548Z,88.64
2018-12-21T02:58:02.178Z,88.71
2018-12-21T03:00:30.804Z,88.36
2018-12-21T03:02:59.451Z,88.30
2018-12-21T03:05:28.069Z,88.48
2018-12-21T03:07:56.634Z,88.84
2018-12-21T03:10:25.291Z,88.11
2018-12-21T03:12:53.928Z,87.92
2018-12-21T03:15:22.549Z,88.29
2018-12-21T03:17:51.174Z,87.74
2018-12-21T03:20:19.815Z,87.80
2018-12-21T03:22:48.482Z,87.74
2018-12-21T03:25:17.221Z,87.98
2018-12-21T03:27:45.855Z,87.98
2018-12-21T03:30:14.680Z,88.07
2018-12-21T03:32:43.280Z,87.95
2018-12-21T03:35:11.892Z,87.58
2018-12-21T03:37:40.506Z,87.52
2018-12-21T03:40:09.208Z,87.54
2018-12-21T03:42:37.773Z,87.31
2018-12-21T03:45:06.714Z,87.38
2018-12-21T03:47:35.471Z,87.71
2018-12-21T03:50:04.237Z,86.97
2018-12-21T03:52:32.891Z,86.93
2018-12-21T03:55:01.490Z,87.12
2018-12-21T03:57:30.223Z,87.32
2018-12-21T03:59:58.857Z,87.12
2018-12-21T04:02:27.422Z,87.16
2018-12-21T04:04:56.040Z,86.98
2018-12-21T04:07:24.675Z,87.25
2018-12-21T04:09:53.353Z,87.36
2018-12-21T04:12:22.082Z,87.73
2018-12-21T04:14:50.708Z,87.73
2018-12-21T04:17:19.335Z,87.42
2018-12-21T04:19:47.875Z,87.55
2018-12-21T04:22:16.496Z,87.94
2018-12-21T04:24:45.146Z,87.89
2018-12-21T04:27:13.756Z,87.66
2018-12-21T04:29:42.394Z,87.51
2018-12-21T04:32:10.960Z,87.73
2018-12-21T04:34:39.684Z,87.32
2018-12-21T04:37:08.326Z,87.42
2018-12-21T04:39:36.930Z,87.25
2018-12-21T04:42:05.662Z,87.30
2018-12-21T04:44:34.216Z,87.71
2018-12-21T04:47:02.832Z,87.24
2018-12-21T04:49:31.529Z,86.99
2018-12-21T04:52:00.176Z,86.99
2018-12-21T04:54:29.086Z,87.50
2018-12-21T04:56:57.705Z,87.49
2018-12-21T04:59:26.277Z,87.30
2018-12-21T05:01:55.062Z,87.60
2018-12-21T05:04:23.729Z,87.37
2018-12-21T05:06:52.425Z,88.08
2018-12-21T05:09:21.060Z,87.59
2018-12-21T05:11:49.701Z,87.44
2018-12-21T05:14:18.259Z,88.02
2018-12-21T05:16:46.868Z,88.09
2018-12-21T05:19:46.123Z,87.66
2018-12-21T05:22:14.709Z,88.20
2018-12-21T05:24:43.293Z,87.72
2018-12-21T05:27:11.920Z,87.50
2018-12-21T05:29:40.529Z,87.14
2018-12-21T05:32:09.134Z,87.03
2018-12-21T05:34:37.718Z,86.96
2018-12-21T05:37:06.366Z,87.16
2018-12-21T05:39:35.071Z,87.18
2018-12-21T05:42:03.636Z,87.27
2018-12-21T05:44:32.286Z,86.72
2018-12-21T05:47:00.880Z,87.46
2018-12-21T05:49:29.490Z,87.38
2018-12-21T05:51:58.102Z,87.43
2018-12-21T05:54:26.767Z,87.34
2018-12-21T05:56:55.316Z,87.21
2018-12-21T05:59:24.501Z,87.69
2018-12-21T06:01:53.123Z,87.30
2018-12-21T06:04:21.762Z,87.76
2018-12-21T06:06:50.424Z,87.07
2018-12-21T06:09:19.013Z,87.20
2018-12-21T06:11:47.565Z,86.96
2018-12-21T06:14:16.208Z,86.83
2018-12-21T06:16:44.806Z,85.82
2018-12-21T06:19:13.472Z,85.94
2018-12-21T06:21:42.677Z,85.66
2018-12-21T06:24:11.673Z,86.08
2018-12-21T06:26:40.811Z,85.64
2018-12-21T06:29:09.654Z,85.52
2018-12-21T06:31:38.244Z,85.67
2018-12-21T06:34:06.946Z,85.79
2018-12-21T06:36:35.612Z,85.48
2018-12-21T06:39:06.404Z,85.49
2018-12-21T06:41:35.061Z,85.67
2018-12-21T06:44:03.770Z,86.43
2018-12-21T06:46:32.460Z,86.76
2018-12-21T06:49:01.033Z,86.49
2018-12-21T06:51:29.640Z,85.98
2018-12-21T06:53:58.320Z,86.27
2018-12-21T06:56:26.941Z,86.05
2018-12-21T06:58:55.622Z,86.66
2018-12-21T07:01:24.342Z,86.30
2018-12-21T07:03:52.927Z,86.17
2018-12-21T07:06:21.554Z,85.14
2018-12-21T07:08:50.234Z,85.83
2018-12-21T07:11:18.904Z,85.77
2018-12-21T07:13:47.676Z,85.79
2018-12-21T07:16:16.280Z,85.79
2018-12-21T07:18:44.845Z,86.01
2018-12-21T07:21:13.477Z,85.70
2018-12-21T07:23:42.070Z,84.91
2018-12-21T07:26:10.836Z,85.58
2018-12-21T07:28:39.466Z,85.25
2018-12-21T07:31:08.160Z,84.87
2018-12-21T07:33:36.792Z,85.44
2018-12-21T07:36:08.637Z,85.55
2018-12-21T07:38:36.085Z,85.51
2018-12-21T07:41:04.756Z,85.21
2018-12-21T07:43:36.520Z,84.76
2018-12-21T07:46:05.221Z,85.63
2018-12-21T07:48:34.285Z,85.11
2018-12-21T07:51:02.879Z,85.19
2018-12-21T07:53:35.748Z,84.70
2018-12-21T07:57:31.694Z,84.38
2018-12-21T08:00:00.419Z,84.84
2018-12-21T08:02:29.162Z,84.73
2018-12-21T08:04:57.822Z,84.55
2018-12-21T08:07:26.550Z,84.62
2018-12-21T08:09:55.187Z,84.63
2018-12-21T08:12:23.896Z,84.43
2018-12-21T08:14:57.706Z,84.46
2018-12-21T08:17:26.389Z,84.60
2018-12-21T08:19:55.026Z,83.94
2018-12-21T08:22:23.657Z,84.54
2018-12-21T08:27:38.256Z,84.92
2018-12-21T08:30:10.799Z,85.23
2018-12-21T08:32:39.449Z,85.17
2018-12-21T08:35:08.145Z,85.31
2018-12-21T08:37:36.896Z,85.30
2018-12-21T08:40:07.543Z,85.30
2018-12-21T08:42:36.147Z,84.85
2018-12-21T08:45:05.974Z,84.79
2018-12-21T08:47:34.890Z,84.09
2018-12-21T08:50:04.127Z,83.97
2018-12-21T08:52:32.705Z,84.13
2018-12-21T08:55:01.446Z,84.25
2018-12-21T08:57:30.102Z,83.92
2018-12-21T08:59:58.751Z,83.44
2018-12-21T09:02:27.389Z,82.68
2018-12-21T09:04:55.981Z,82.47
2018-12-21T09:07:24.606Z,83.37
2018-12-21T09:09:53.322Z,82.62
2018-12-21T09:12:22.005Z,83.04
2018-12-21T09:14:50.586Z,81.92
2018-12-21T09:17:19.269Z,82.22
2018-12-21T09:19:47.871Z,82.99
2018-12-21T09:22:16.493Z,82.57
2018-12-21T09:24:45.138Z,82.27
2018-12-21T09:27:13.752Z,82.69
2018-12-21T09:29:42.496Z,82.88
2018-12-21T09:32:11.755Z,82.32
2018-12-21T09:34:40.443Z,81.86
2018-12-21T09:37:09.050Z,82.39
2018-12-21T09:41:06.746Z,81.86
2018-12-21T09:43:35.447Z,81.79
2018-12-21T09:46:04.194Z,82.90
2018-12-21T09:48:32.762Z,83.52
2018-12-21T09:51:01.553Z,83.42
2018-12-21T09:53:30.224Z,81.68
2018-12-21T09:55:58.861Z,80.76
2018-12-21T09:58:27.612Z,81.32
2018-12-21T10:00:56.264Z,80.79
2018-12-21T10:03:25.044Z,80.03
2018-12-21T10:05:53.735Z,80.72
2018-12-21T10:08:22.394Z,81.20
2018-12-21T10:10:51.040Z,81.88
2018-12-21T10:13:19.812Z,80.67
2018-12-21T10:15:48.478Z,80.85
2018-12-21T10:21:20.931Z,81.71
2018-12-21T10:23:49.468Z,81.86
2018-12-21T10:26:18.030Z,81.69
2018-12-21T10:28:47.580Z,81.83
2018-12-21T10:31:16.144Z,81.88
2018-12-21T10:33:44.698Z,80.86
2018-12-21T10:36:13.408Z,79.93
2018-12-21T10:38:42.041Z,79.32
2018-12-21T10:41:11.061Z,78.64
2018-12-21T10:43:39.612Z,78.65
2018-12-21T10:46:08.244Z,78.81
2018-12-21T10:48:37.475Z,79.56
2018-12-21T10:51:06.375Z,79.10
2018-12-21T10:53:35.017Z,79.69
2018-12-21T10:56:03.687Z,79.27
2018-12-21T10:58:32.263Z,79.65
2018-12-21T11:01:00.888Z,80.31
2018-12-21T11:03:29.434Z,79.70
2018-12-21T11:05:58.144Z,80.18
2018-12-21T11:08:26.883Z,81.00
2018-12-21T11:10:55.559Z,80.71
2018-12-21T11:13:24.134Z,81.05
2018-12-21T11:15:52.745Z,81.03
2018-12-21T11:18:21.275Z,80.62
2018-12-21T11:20:49.853Z,80.20
2018-12-21T11:23:18.460Z,80.72
2018-12-21T11:25:47.032Z,79.26
2018-12-21T11:28:15.632Z,80.00
2018-12-21T11:30:44.251Z,80.10
2018-12-21T11:33:28.441Z,79.97
2018-12-21T11:35:57.029Z,79.41
2018-12-21T11:38:25.621Z,79.53
2018-12-21T11:40:54.392Z,79.59
2018-12-21T11:43:22.944Z,78.73
2018-12-21T11:45:51.529Z,78.14
2018-12-21T11:48:20.140Z,77.32
2018-12-21T11:50:50.099Z,77.38
2018-12-21T11:53:18.719Z,76.66
2018-12-21T11:55:47.336Z,75.84
2018-12-21T11:58:15.961Z,75.59
2018-12-21T12:00:44.556Z,73.91
2018-12-21T12:03:13.171Z,73.60
2018-12-21T12:05:41.803Z,72.98
2018-12-21T12:08:10.387Z,71.88
2018-12-21T12:10:39.005Z,72.34
2018-12-21T12:13:07.628Z,72.95
2018-12-21T12:15:36.195Z,72.08
2018-12-21T12:18:04.810Z,71.38
2018-12-21T12:20:33.556Z,70.18
2018-12-21T12:23:02.207Z,69.54
2018-12-21T12:25:32.246Z,69.46
2018-12-21T12:28:03.723Z,69.47
2018-12-21T12:30:32.630Z,69.84
2018-12-21T12:33:01.344Z,70.40
2018-12-21T12:35:29.963Z,70.58
2018-12-21T12:38:18.798Z,72.05
2018-12-21T12:40:51.613Z,72.47
2018-12-21T12:43:24.046Z,71.15
2018-12-21T12:45:52.807Z,71.14
2018-12-21T12:48:21.679Z,71.37
2018-12-21T12:50:50.314Z,72.66
2018-12-21T12:53:19.109Z,71.80
2018-12-21T12:55:47.742Z,71.96
2018-12-21T12:58:16.369Z,73.18
2018-12-21T13:00:45.024Z,73.75
2018-12-21T13:03:13.643Z,73.66
2018-12-21T13:05:42.240Z,72.74
2018-12-21T13:08:10.834Z,72.44
2018-12-21T13:10:39.405Z,73.44
2018-12-21T13:13:08.329Z,73.20
2018-12-21T13:15:36.908Z,74.10
2018-12-21T13:18:05.499Z,74.34
2018-12-21T13:20:38.104Z,74.83
2018-12-21T13:23:11.117Z,74.16
2018-12-21T13:25:40.558Z,74.13
2018-12-21T13:28:10.837Z,74.82
2018-12-21T13:30:40.883Z,74.77
2018-12-21T13:33:09.657Z,75.26
2018-12-21T13:35:39.398Z,76.60
2018-12-21T13:38:08.635Z,76.71
2018-12-21T13:40:39.383Z,77.48
2018-12-21T13:43:09.127Z,77.47
2018-12-21T13:45:38.752Z,77.51
2018-12-21T13:48:07.361Z,77.59
2018-12-21T13:50:36.323Z,77.31
2018-12-21T13:53:05.027Z,78.62
2018-12-21T13:55:33.590Z,78.99
2018-12-21T13:58:03.116Z,78.97
2018-12-21T14:00:32.487Z,78.39
2018-12-21T14:03:01.254Z,77.69
2018-12-21T14:05:31.558Z,78.05
2018-12-21T14:08:00.375Z,78.32
2018-12-21T14:10:30.570Z,77.47
2018-12-21T14:12:59.438Z,77.58
2018-12-21T14:15:29.680Z,78.16
2018-12-21T14:17:58.483Z,78.92
2018-12-21T14:20:29.612Z,78.47
2018-12-21T14:23:00.208Z,78.48
2018-12-21T14:25:29.332Z,78.33
2018-12-21T14:27:59.383Z,78.09
2018-12-21T14:30:28.019Z,78.79
2018-12-21T14:32:56.631Z,78.79
2018-12-21T14:35:26.199Z,79.38
2018-12-21T14:37:55.814Z,79.89
2018-12-21T14:40:25.419Z,79.94
2018-12-21T14:42:55.800Z,80.24
2018-12-21T14:45:24.932Z,80.32
2018-12-21T14:47:53.695Z,80.92
2018-12-21T14:50:23.028Z,80.75
2018-12-21T14:52:55.336Z,80.54
2018-12-21T14:55:24.522Z,80.70
2018-12-21T14:57:56.943Z,81.22
2018-12-21T15:00:26.287Z,81.73
2018-12-21T15:02:57.497Z,81.73
2018-12-21T15:05:26.124Z,82.08
2018-12-21T15:07:57.476Z,82.82
2018-12-21T15:10:26.816Z,83.05
2018-12-21T15:12:56.018Z,82.75
2018-12-21T15:15:24.652Z,82.01
2018-12-21T15:17:53.361Z,81.90
2018-12-21T15:20:22.455Z,82.26
2018-12-21T15:22:51.224Z,82.26
2018-12-21T15:25:19.955Z,82.92
2018-12-21T15:27:48.928Z,83.02
2018-12-21T15:30:18.698Z,83.12
2018-12-21T15:32:47.730Z,83.02
2018-12-21T15:35:17.296Z,82.27
2018-12-21T15:37:47.088Z,83.02
2018-12-21T15:40:15.853Z,82.50
2018-12-21T15:42:45.408Z,82.46
2018-12-21T15:45:14.832Z,82.50
2018-12-21T15:47:43.589Z,82.34
2018-12-21T15:50:12.978Z,82.52
2018-12-21T15:52:43.755Z,82.58
2018-12-21T15:55:12.371Z,82.67
2018-12-21T15:57:41.200Z,83.02
2018-12-21T16:00:13.274Z,83.33
2018-12-21T16:02:44.992Z,83.79
2018-12-21T16:05:14.230Z,83.66
2018-12-21T16:07:43.267Z,83.62
2018-12-21T16:10:12.502Z,83.48
2018-12-21T16:12:41.254Z,83.43
2018-12-21T16:15:10.207Z,83.21
2018-12-21T16:17:40.103Z,83.57
2018-12-21T16:20:12.307Z,83.69
2018-12-21T16:22:42.445Z,83.44
2018-12-21T16:25:12.258Z,83.66
2018-12-21T16:27:40.866Z,83.71
2018-12-21T16:30:13.624Z,84.53
2018-12-21T16:32:42.371Z,84.26
2018-12-21T16:35:11.470Z,84.22
2018-12-21T16:37:41.076Z,84.28
2018-12-21T16:40:11.319Z,84.43
2018-12-21T16:42:40.584Z,84.68
2018-12-21T16:45:11.601Z,84.71
2018-12-21T16:47:41.577Z,85.17
2018-12-21T16:50:13.216Z,85.28
2018-12-21T16:52:42.846Z,85.50
2018-12-21T16:55:12.213Z,85.61
2018-12-21T16:57:40.914Z,85.10
2018-12-21T17:00:16.514Z,85.08
2018-12-21T17:02:45.257Z,84.99
2018-12-21T17:05:13.947Z,84.76
2018-12-21T17:07:43.240Z,84.61
2018-12-21T17:10:19.049Z,84.81
2018-12-21T17:12:47.753Z,84.60
2018-12-21T17:15:16.714Z,84.62
2018-12-21T17:17:46.364Z,84.66
2018-12-21T17:20:15.226Z,84.97
2018-12-21T17:22:44.775Z,84.79
2018-12-21T17:25:14.791Z,84.53
2018-12-21T17:27:43.648Z,83.93
2018-12-21T17:30:15.620Z,84.17
2018-12-21T17:32:44.821Z,83.87
2018-12-21T17:35:15.534Z,84.79
2018-12-21T17:37:44.360Z,85.17
2018-12-21T17:40:14.862Z,84.55
2018-12-21T17:42:44.152Z,84.63
2018-12-21T17:45:14.558Z,84.38
2018-12-21T17:47:45.578Z,84.66
2018-12-21T17:50:14.741Z,84.10
2018-12-21T17:52:44.367Z,83.52
2018-12-21T17:55:13.791Z,84.04
2018-12-21T17:57:43.100Z,84.62
2018-12-21T18:00:22.806Z,84.70
2018-12-21T18:02:55.010Z,84.45
2018-12-21T18:05:25.659Z,84.76
2018-12-21T18:07:56.183Z,84.79
2018-12-21T18:10:24.942Z,84.65
2018-12-21T18:12:54.073Z,85.10
2018-12-21T18:15:23.679Z,85.23
2018-12-21T18:17:52.992Z,85.28
2018-12-21T18:20:23.825Z,85.22
2018-12-21T18:22:53.269Z,85.52
2018-12-21T18:25:26.130Z,85.90
2018-12-21T18:27:57.381Z,85.67
2018-12-21T18:30:34.446Z,85.57
2018-12-21T18:33:10.644Z,85.19
2018-12-21T18:35:37.605Z,85.09
2018-12-21T18:38:11.513Z,84.90
2018-12-21T18:40:41.298Z,84.73
2018-12-21T18:44:13.261Z,85.12
2018-12-21T18:46:42.735Z,84.64
2018-12-21T18:49:14.843Z,85.28
2018-12-21T18:51:44.133Z,85.38
2018-12-21T18:54:13.119Z,85.35
2018-12-21T18:56:55.742Z,85.70
2018-12-21T18:59:24.909Z,85.59
2018-12-21T19:01:53.565Z,86.13
2018-12-21T19:04:22.203Z,86.01
2018-12-21T19:06:50.736Z,85.78
2018-12-21T19:10:36.745Z,85.60
2018-12-21T19:13:07.031Z,85.19
2018-12-21T19:15:37.388Z,85.71
2018-12-21T19:18:05.930Z,86.11
2018-12-21T19:20:35.778Z,85.84
2018-12-21T19:23:04.399Z,86.09
2018-12-21T19:25:33.522Z,85.92
2018-12-21T19:28:04.479Z,85.68
2018-12-21T19:30:33.244Z,85.97
2018-12-21T19:33:03.585Z,85.53
2018-12-21T19:35:32.626Z,85.95
2018-12-21T19:38:01.314Z,85.62
2018-12-21T19:40:30.605Z,85.50
2018-12-21T19:42:59.612Z,86.32
2018-12-21T19:45:28.335Z,85.90
2018-12-21T19:47:57.145Z,85.94
2018-12-21T19:50:27.375Z,85.63
2018-12-21T19:52:56.194Z,85.35
2018-12-21T19:57:45.316Z,86.09
2018-12-21T20:00:14.152Z,85.78
2018-12-21T20:02:43.744Z,84.76
2018-12-21T20:05:12.827Z,83.84
2018-12-21T20:07:41.826Z,83.85
2018-12-21T20:10:12.226Z,84.18
2018-12-21T20:12:40.915Z,84.48
2018-12-21T20:15:10.435Z,84.99
2018-12-21T20:17:39.546Z,85.35
2018-12-21T20:20:09.594Z,85.52
2018-12-21T20:22:39.442Z,85.67
2018-12-21T20:25:10.062Z,86.14
2018-12-21T20:27:40.553Z,87.06
2018-12-21T20:30:16.696Z,86.60
2018-12-21T20:32:46.003Z,86.71
2018-12-21T20:35:14.862Z,87.31
2018-12-21T20:37:45.751Z,86.98
2018-12-21T20:40:14.501Z,87.19
2018-12-21T20:45:20.083Z,86.36
2018-12-21T20:47:49.334Z,85.95
2018-12-21T20:50:18.510Z,85.69
2018-12-21T20:52:48.967Z,85.50
2018-12-21T20:55:17.806Z,85.23
2018-12-21T20:57:49.259Z,85.29
2018-12-21T21:00:19.095Z,85.37
2018-12-21T21:02:47.954Z,85.28
2018-12-21T21:05:16.648Z,85.26
2018-12-21T21:07:48.337Z,86.02
2018-12-21T21:10:17.577Z,86.04
2018-12-21T21:12:46.175Z,87.04
2018-12-21T21:15:14.902Z,87.31
2018-12-21T21:17:43.547Z,87.15
2018-12-21T21:20:14.889Z,87.60
2018-12-21T21:22:43.781Z,87.38
2018-12-21T21:25:12.497Z,87.45
2018-12-21T21:27:41.192Z,86.92
2018-12-21T21:30:14.498Z,87.16
2018-12-21T21:32:43.159Z,87.14
2018-12-21T21:35:11.993Z,86.77
2018-12-21T21:37:40.723Z,87.18
2018-12-21T21:40:16.349Z,87.15
2018-12-21T21:42:45.823Z,87.30
2018-12-21T21:45:14.459Z,87.27
2018-12-21T21:47:44.042Z,87.48
2018-12-21T21:50:13.886Z,87.43
2018-12-21T21:52:42.992Z,87.45
2018-12-21T21:55:11.633Z,87.96
2018-12-21T21:57:40.215Z,88.06
2018-12-21T22:00:13.870Z,88.29
2018-12-21T22:02:42.715Z,88.61
2018-12-21T22:05:30.540Z,88.25
2018-12-21T22:07:59.145Z,88.63
2018-12-21T22:10:27.937Z,89.86
2018-12-21T22:12:56.547Z,89.79
2018-12-21T22:15:25.128Z,89.67
2018-12-21T22:17:53.697Z,89.29
2018-12-21T22:20:22.292Z,89.51
2018-12-21T22:22:50.972Z,89.69
2018-12-21T22:25:19.511Z,89.69
2018-12-21T22:27:48.369Z,90.10
2018-12-21T22:30:17.137Z,90.00
2018-12-21T22:32:45.729Z,89.65
2018-12-21T22:35:14.323Z,89.74
2018-12-21T22:37:42.933Z,90.20
2018-12-21T22:40:11.488Z,90.11
2018-12-21T22:42:40.135Z,89.92
2018-12-21T22:45:08.848Z,90.45
2018-12-21T22:47:37.429Z,90.68
2018-12-21T22:50:07.843Z,90.03
2018-12-21T22:52:37.113Z,89.44
2018-12-21T22:55:06.744Z,89.91
2018-12-21T22:57:35.340Z,88.86
2018-12-21T23:00:12.783Z,88.97
2018-12-21T23:02:41.450Z,89.02
2018-12-21T23:05:10.162Z,88.91
2018-12-21T23:07:38.765Z,89.42
2018-12-21T23:10:08.273Z,88.97
2018-12-21T23:12:36.842Z,88.73
2018-12-21T23:15:05.633Z,88.59
2018-12-21T23:17:34.271Z,88.61
2018-12-21T23:20:02.975Z,89.33
2018-12-21T23:22:31.667Z,88.22
2018-12-21T23:25:00.262Z,88.35
2018-12-21T23:27:28.864Z,88.13
2018-12-21T23:29:57.457Z,88.10
2018-12-21T23:32:26.155Z,87.81
2018-12-21T23:34:54.699Z,87.80
2018-12-21T23:37:23.320Z,88.07
2018-12-21T23:39:51.898Z,87.93
2018-12-21T23:42:20.636Z,88.26
2018-12-21T23:44:49.263Z,88.04
2018-12-21T23:47:17.875Z,87.46
2018-12-21T23:49:46.485Z,87.59
2018-12-21T23:52:15.054Z,88.38
2018-12-21T23:54:43.680Z,88.38
2018-12-21T23:57:12.323Z,88.79
2018-12-21T23:59:41.231Z,88.74
